sensor_id;sensor_type;location;lat;lon;timestamp;temperature;humidity
18139;DHT22;9195;53.176;9.486;2022-09-09T00:01:20;14.80;99.90
18139;DHT22;9195;53.176;9.486;2022-09-09T00:09:33;14.80;99.90
18139;DHT22;9195;53.176;9.486;2022-09-09T00:12:13;15.00;99.90
18139;DHT22;9195;53.176;9.486;2022-09-09T00:17:25;15.10;99.90
18139;DHT22;9195;53.176;9.486;2022-09-09T00:19:55;14.60;99.90
18139;DHT22;9195;53.176;9.486;2022-09-09T00:22:27;14.50;99.90
18139;DHT22;9195;53.176;9.486;2022-09-09T00:24:55;15.10;99.90
18139;DHT22;9195;53.176;9.486;2022-09-09T00:27:41;14.90;99.90
18139;DHT22;9195;53.176;9.486;2022-09-09T00:32:40;15.10;99.90
18139;DHT22;9195;53.176;9.486;2022-09-09T00:35:24;14.80;99.90
18139;DHT22;9195;53.176;9.486;2022-09-09T00:37:54;14.80;99.90
18139;DHT22;9195;53.176;9.486;2022-09-09T00:40:37;14.80;99.90
18139;DHT22;9195;53.176;9.486;2022-09-09T00:48:42;14.80;99.90
18139;DHT22;9195;53.176;9.486;2022-09-09T00:54:31;14.60;99.90
18139;DHT22;9195;53.176;9.486;2022-09-09T00:59:52;14.40;99.90
18139;DHT22;9195;53.176;9.486;2022-09-09T01:02:26;14.50;99.90
18139;DHT22;9195;53.176;9.486;2022-09-09T01:04:53;14.50;99.90
18139;DHT22;9195;53.176;9.486;2022-09-09T01:07:20;14.80;99.90
18139;DHT22;9195;53.176;9.486;2022-09-09T01:14:55;14.80;99.90
18139;DHT22;9195;53.176;9.486;2022-09-09T01:17:31;14.80;99.90
18139;DHT22;9195;53.176;9.486;2022-09-09T01:20:14;14.80;99.90
18139;DHT22;9195;53.176;9.486;2022-09-09T01:28:46;14.70;99.90
18139;DHT22;9195;53.176;9.486;2022-09-09T01:31:17;14.50;99.90
18139;DHT22;9195;53.176;9.486;2022-09-09T01:33:43;14.80;99.90
18139;DHT22;9195;53.176;9.486;2022-09-09T01:36:34;14.90;99.90
18139;DHT22;9195;53.176;9.486;2022-09-09T01:39:02;14.80;99.90
18139;DHT22;9195;53.176;9.486;2022-09-09T01:41:28;14.90;99.90
18139;DHT22;9195;53.176;9.486;2022-09-09T01:43:54;14.40;99.90
18139;DHT22;9195;53.176;9.486;2022-09-09T01:46:22;14.70;99.90
18139;DHT22;9195;53.176;9.486;2022-09-09T01:48:50;14.40;99.90
18139;DHT22;9195;53.176;9.486;2022-09-09T01:51:16;14.80;99.90
18139;DHT22;9195;53.176;9.486;2022-09-09T01:53:43;14.80;99.90
18139;DHT22;9195;53.176;9.486;2022-09-09T02:04:44;14.30;99.90
18139;DHT22;9195;53.176;9.486;2022-09-09T02:09:57;14.40;99.90
18139;DHT22;9195;53.176;9.486;2022-09-09T02:12:25;14.60;99.90
18139;DHT22;9195;53.176;9.486;2022-09-09T02:14:56;14.40;99.90
18139;DHT22;9195;53.176;9.486;2022-09-09T02:17:32;14.10;99.90
18139;DHT22;9195;53.176;9.486;2022-09-09T02:20:12;14.20;99.90
18139;DHT22;9195;53.176;9.486;2022-09-09T02:22:40;14.40;99.90
18139;DHT22;9195;53.176;9.486;2022-09-09T02:25:08;14.30;99.90
18139;DHT22;9195;53.176;9.486;2022-09-09T02:27:36;14.50;99.90
18139;DHT22;9195;53.176;9.486;2022-09-09T02:30:04;14.30;99.90
18139;DHT22;9195;53.176;9.486;2022-09-09T02:32:31;14.10;99.90
18139;DHT22;9195;53.176;9.486;2022-09-09T02:35:03;14.30;99.90
18139;DHT22;9195;53.176;9.486;2022-09-09T02:37:38;14.30;99.90
18139;DHT22;9195;53.176;9.486;2022-09-09T02:40:06;14.40;99.90
18139;DHT22;9195;53.176;9.486;2022-09-09T02:42:42;14.30;99.90
18139;DHT22;9195;53.176;9.486;2022-09-09T02:45:10;14.00;99.90
18139;DHT22;9195;53.176;9.486;2022-09-09T02:47:44;14.30;99.90
18139;DHT22;9195;53.176;9.486;2022-09-09T02:55:43;14.30;99.90
18139;DHT22;9195;53.176;9.486;2022-09-09T02:58:13;14.30;99.90
18139;DHT22;9195;53.176;9.486;2022-09-09T03:00:45;14.00;99.90
18139;DHT22;9195;53.176;9.486;2022-09-09T03:03:11;14.10;99.90
18139;DHT22;9195;53.176;9.486;2022-09-09T03:05:37;14.00;99.90
18139;DHT22;9195;53.176;9.486;2022-09-09T03:08:04;14.10;99.90
18139;DHT22;9195;53.176;9.486;2022-09-09T03:10:31;13.90;99.90
18139;DHT22;9195;53.176;9.486;2022-09-09T03:12:57;13.90;99.90
18139;DHT22;9195;53.176;9.486;2022-09-09T03:15:23;14.10;99.90
18139;DHT22;9195;53.176;9.486;2022-09-09T03:17:48;13.90;99.90
18139;DHT22;9195;53.176;9.486;2022-09-09T03:20:14;14.20;99.90
18139;DHT22;9195;53.176;9.486;2022-09-09T03:22:40;13.90;99.90
18139;DHT22;9195;53.176;9.486;2022-09-09T03:25:06;14.00;99.90
18139;DHT22;9195;53.176;9.486;2022-09-09T03:27:32;13.80;99.90
18139;DHT22;9195;53.176;9.486;2022-09-09T03:29:58;13.80;99.90
18139;DHT22;9195;53.176;9.486;2022-09-09T03:32:24;13.80;99.90
18139;DHT22;9195;53.176;9.486;2022-09-09T03:34:51;14.00;99.90
18139;DHT22;9195;53.176;9.486;2022-09-09T03:37:18;13.80;99.90
18139;DHT22;9195;53.176;9.486;2022-09-09T03:39:44;14.10;99.90
18139;DHT22;9195;53.176;9.486;2022-09-09T03:42:12;13.60;99.90
18139;DHT22;9195;53.176;9.486;2022-09-09T03:44:39;13.60;99.90
18139;DHT22;9195;53.176;9.486;2022-09-09T03:47:05;13.70;99.90
18139;DHT22;9195;53.176;9.486;2022-09-09T03:49:31;13.60;99.90
18139;DHT22;9195;53.176;9.486;2022-09-09T03:51:57;13.80;99.90
18139;DHT22;9195;53.176;9.486;2022-09-09T03:54:24;13.60;99.90
18139;DHT22;9195;53.176;9.486;2022-09-09T03:56:50;13.60;99.90
18139;DHT22;9195;53.176;9.486;2022-09-09T03:59:15;13.70;99.90
18139;DHT22;9195;53.176;9.486;2022-09-09T04:01:41;13.70;99.90
18139;DHT22;9195;53.176;9.486;2022-09-09T04:04:07;14.00;99.90
18139;DHT22;9195;53.176;9.486;2022-09-09T04:06:33;13.70;99.90
18139;DHT22;9195;53.176;9.486;2022-09-09T04:08:59;14.00;99.90
18139;DHT22;9195;53.176;9.486;2022-09-09T04:11:25;14.10;99.90
18139;DHT22;9195;53.176;9.486;2022-09-09T04:13:50;13.70;99.90
18139;DHT22;9195;53.176;9.486;2022-09-09T04:16:16;14.00;99.90
18139;DHT22;9195;53.176;9.486;2022-09-09T04:18:42;13.80;99.90
18139;DHT22;9195;53.176;9.486;2022-09-09T04:21:09;14.20;99.90
18139;DHT22;9195;53.176;9.486;2022-09-09T04:23:35;14.10;99.90
18139;DHT22;9195;53.176;9.486;2022-09-09T04:26:02;14.00;99.90
18139;DHT22;9195;53.176;9.486;2022-09-09T04:28:30;13.80;99.90
18139;DHT22;9195;53.176;9.486;2022-09-09T04:30:57;14.00;99.90
18139;DHT22;9195;53.176;9.486;2022-09-09T04:33:28;14.10;99.90
18139;DHT22;9195;53.176;9.486;2022-09-09T04:35:54;13.80;99.90
18139;DHT22;9195;53.176;9.486;2022-09-09T04:38:20;13.80;99.90
18139;DHT22;9195;53.176;9.486;2022-09-09T04:40:49;14.00;99.90
18139;DHT22;9195;53.176;9.486;2022-09-09T04:43:17;14.30;99.90
18139;DHT22;9195;53.176;9.486;2022-09-09T04:45:47;13.90;99.90
18139;DHT22;9195;53.176;9.486;2022-09-09T04:48:12;14.30;99.90
18139;DHT22;9195;53.176;9.486;2022-09-09T04:50:39;14.00;99.90
18139;DHT22;9195;53.176;9.486;2022-09-09T04:53:06;14.00;99.90
18139;DHT22;9195;53.176;9.486;2022-09-09T04:55:33;13.90;99.90
18139;DHT22;9195;53.176;9.486;2022-09-09T04:58:07;14.20;99.90
18139;DHT22;9195;53.176;9.486;2022-09-09T05:00:35;14.30;99.90
18139;DHT22;9195;53.176;9.486;2022-09-09T05:03:04;14.40;99.90
18139;DHT22;9195;53.176;9.486;2022-09-09T05:05:31;14.30;99.90
18139;DHT22;9195;53.176;9.486;2022-09-09T05:08:04;14.20;99.90
18139;DHT22;9195;53.176;9.486;2022-09-09T05:10:31;14.50;99.90
18139;DHT22;9195;53.176;9.486;2022-09-09T05:12:56;14.20;99.90
18139;DHT22;9195;53.176;9.486;2022-09-09T05:15:22;14.60;99.90
18139;DHT22;9195;53.176;9.486;2022-09-09T05:17:48;14.60;99.90
18139;DHT22;9195;53.176;9.486;2022-09-09T05:20:13;14.10;99.90
18139;DHT22;9195;53.176;9.486;2022-09-09T05:22:39;14.50;99.90
18139;DHT22;9195;53.176;9.486;2022-09-09T05:25:06;14.10;99.90
18139;DHT22;9195;53.176;9.486;2022-09-09T05:27:34;14.60;99.90
18139;DHT22;9195;53.176;9.486;2022-09-09T05:29:59;14.50;99.90
18139;DHT22;9195;53.176;9.486;2022-09-09T05:32:25;14.50;99.90
18139;DHT22;9195;53.176;9.486;2022-09-09T05:34:51;14.30;99.90
18139;DHT22;9195;53.176;9.486;2022-09-09T05:37:17;14.20;99.90
18139;DHT22;9195;53.176;9.486;2022-09-09T05:39:43;14.30;99.90
18139;DHT22;9195;53.176;9.486;2022-09-09T05:42:09;14.30;99.90
18139;DHT22;9195;53.176;9.486;2022-09-09T05:44:35;14.40;99.90
18139;DHT22;9195;53.176;9.486;2022-09-09T05:47:00;14.60;99.90
18139;DHT22;9195;53.176;9.486;2022-09-09T05:49:26;14.90;99.90
18139;DHT22;9195;53.176;9.486;2022-09-09T05:51:52;14.70;99.90
18139;DHT22;9195;53.176;9.486;2022-09-09T05:54:18;14.90;99.90
18139;DHT22;9195;53.176;9.486;2022-09-09T05:56:44;15.10;99.90
18139;DHT22;9195;53.176;9.486;2022-09-09T05:59:10;14.80;99.90
18139;DHT22;9195;53.176;9.486;2022-09-09T06:01:37;15.00;99.90
18139;DHT22;9195;53.176;9.486;2022-09-09T06:04:06;14.60;99.90
18139;DHT22;9195;53.176;9.486;2022-09-09T06:06:34;14.90;99.90
18139;DHT22;9195;53.176;9.486;2022-09-09T06:09:06;15.20;99.90
18139;DHT22;9195;53.176;9.486;2022-09-09T06:11:35;14.90;99.90
18139;DHT22;9195;53.176;9.486;2022-09-09T06:14:02;15.20;99.90
18139;DHT22;9195;53.176;9.486;2022-09-09T06:16:29;14.70;99.90
18139;DHT22;9195;53.176;9.486;2022-09-09T06:18:55;14.90;99.90
18139;DHT22;9195;53.176;9.486;2022-09-09T06:21:23;15.10;99.90
18139;DHT22;9195;53.176;9.486;2022-09-09T06:23:49;15.20;99.90
18139;DHT22;9195;53.176;9.486;2022-09-09T06:26:22;14.90;99.90
18139;DHT22;9195;53.176;9.486;2022-09-09T06:28:49;14.80;99.90
18139;DHT22;9195;53.176;9.486;2022-09-09T06:31:17;15.20;99.90
18139;DHT22;9195;53.176;9.486;2022-09-09T06:33:47;15.10;99.90
18139;DHT22;9195;53.176;9.486;2022-09-09T06:36:33;15.40;99.90
18139;DHT22;9195;53.176;9.486;2022-09-09T06:38:59;15.10;99.90
18139;DHT22;9195;53.176;9.486;2022-09-09T06:41:27;15.30;99.90
18139;DHT22;9195;53.176;9.486;2022-09-09T06:43:53;15.10;99.90
18139;DHT22;9195;53.176;9.486;2022-09-09T06:46:25;15.10;99.90
18139;DHT22;9195;53.176;9.486;2022-09-09T06:48:53;15.10;99.90
18139;DHT22;9195;53.176;9.486;2022-09-09T06:51:31;15.50;99.90
18139;DHT22;9195;53.176;9.486;2022-09-09T06:53:59;15.20;99.90
18139;DHT22;9195;53.176;9.486;2022-09-09T06:56:35;15.40;99.90
18139;DHT22;9195;53.176;9.486;2022-09-09T06:59:03;15.70;99.90
18139;DHT22;9195;53.176;9.486;2022-09-09T07:01:37;15.70;99.90
18139;DHT22;9195;53.176;9.486;2022-09-09T07:04:04;15.80;99.90
18139;DHT22;9195;53.176;9.486;2022-09-09T07:06:35;15.50;99.90
18139;DHT22;9195;53.176;9.486;2022-09-09T07:09:06;15.70;99.90
18139;DHT22;9195;53.176;9.486;2022-09-09T07:11:34;15.60;99.90
18139;DHT22;9195;53.176;9.486;2022-09-09T07:14:00;15.70;99.90
18139;DHT22;9195;53.176;9.486;2022-09-09T07:16:27;16.00;99.90
18139;DHT22;9195;53.176;9.486;2022-09-09T07:18:53;15.60;99.90
18139;DHT22;9195;53.176;9.486;2022-09-09T07:21:25;15.80;99.90
18139;DHT22;9195;53.176;9.486;2022-09-09T07:23:52;16.00;99.90
18139;DHT22;9195;53.176;9.486;2022-09-09T07:26:20;15.70;99.90
18139;DHT22;9195;53.176;9.486;2022-09-09T07:28:46;16.10;99.90
18139;DHT22;9195;53.176;9.486;2022-09-09T07:31:23;15.70;99.90
18139;DHT22;9195;53.176;9.486;2022-09-09T07:33:49;15.80;99.90
18139;DHT22;9195;53.176;9.486;2022-09-09T07:36:35;16.20;99.90
18139;DHT22;9195;53.176;9.486;2022-09-09T07:39:07;15.90;99.90
18139;DHT22;9195;53.176;9.486;2022-09-09T07:41:35;15.90;99.90
18139;DHT22;9195;53.176;9.486;2022-09-09T07:44:06;16.40;99.90
18139;DHT22;9195;53.176;9.486;2022-09-09T07:46:32;16.20;99.90
18139;DHT22;9195;53.176;9.486;2022-09-09T07:48:59;16.50;99.90
18139;DHT22;9195;53.176;9.486;2022-09-09T07:51:28;17.10;99.90
18139;DHT22;9195;53.176;9.486;2022-09-09T07:53:59;16.90;99.90
18139;DHT22;9195;53.176;9.486;2022-09-09T07:56:26;17.10;99.90
18139;DHT22;9195;53.176;9.486;2022-09-09T07:58:54;16.90;99.90
18139;DHT22;9195;53.176;9.486;2022-09-09T08:01:32;17.50;99.90
18139;DHT22;9195;53.176;9.486;2022-09-09T08:04:01;17.30;99.90
18139;DHT22;9195;53.176;9.486;2022-09-09T08:06:39;16.90;99.90
18139;DHT22;9195;53.176;9.486;2022-09-09T08:09:06;17.30;99.90
18139;DHT22;9195;53.176;9.486;2022-09-09T08:11:32;17.20;99.90
18139;DHT22;9195;53.176;9.486;2022-09-09T08:13:58;17.40;99.90
18139;DHT22;9195;53.176;9.486;2022-09-09T08:16:27;17.40;99.90
18139;DHT22;9195;53.176;9.486;2022-09-09T08:18:53;17.30;99.90
18139;DHT22;9195;53.176;9.486;2022-09-09T08:21:30;17.20;99.90
18139;DHT22;9195;53.176;9.486;2022-09-09T08:23:59;17.70;99.90
18139;DHT22;9195;53.176;9.486;2022-09-09T08:26:34;17.40;99.90
18139;DHT22;9195;53.176;9.486;2022-09-09T08:29:01;17.50;99.90
18139;DHT22;9195;53.176;9.486;2022-09-09T08:31:31;17.40;99.90
18139;DHT22;9195;53.176;9.486;2022-09-09T08:33:58;17.20;99.90
18139;DHT22;9195;53.176;9.486;2022-09-09T08:36:32;17.90;99.90
18139;DHT22;9195;53.176;9.486;2022-09-09T08:39:02;17.80;99.90
18139;DHT22;9195;53.176;9.486;2022-09-09T08:55:22;18.40;99.90
18139;DHT22;9195;53.176;9.486;2022-09-09T08:57:52;19.00;99.90
18139;DHT22;9195;53.176;9.486;2022-09-09T09:00:19;18.70;99.90
18139;DHT22;9195;53.176;9.486;2022-09-09T09:05:28;19.00;99.90
18139;DHT22;9195;53.176;9.486;2022-09-09T09:08:04;19.50;99.90
18139;DHT22;9195;53.176;9.486;2022-09-09T09:13:02;18.90;99.90
18139;DHT22;9195;53.176;9.486;2022-09-09T09:15:36;19.20;99.90
18139;DHT22;9195;53.176;9.486;2022-09-09T09:18:04;19.40;99.90
18139;DHT22;9195;53.176;9.486;2022-09-09T09:20:55;19.10;99.90
18139;DHT22;9195;53.176;9.486;2022-09-09T09:23:28;18.80;99.90
18139;DHT22;9195;53.176;9.486;2022-09-09T09:26:00;19.70;99.90
18139;DHT22;9195;53.176;9.486;2022-09-09T09:28:29;19.40;99.90
18139;DHT22;9195;53.176;9.486;2022-09-09T09:31:09;18.40;99.90
18139;DHT22;9195;53.176;9.486;2022-09-09T09:36:11;18.80;99.90
18139;DHT22;9195;53.176;9.486;2022-09-09T09:38:55;20.00;99.90
18139;DHT22;9195;53.176;9.486;2022-09-09T09:43:56;19.80;99.90
18139;DHT22;9195;53.176;9.486;2022-09-09T09:46:24;19.90;99.90
18139;DHT22;9195;53.176;9.486;2022-09-09T09:49:04;19.90;99.90
18139;DHT22;9195;53.176;9.486;2022-09-09T09:51:32;19.50;99.90
18139;DHT22;9195;53.176;9.486;2022-09-09T09:54:17;18.90;99.90
18139;DHT22;9195;53.176;9.486;2022-09-09T09:56:44;19.00;99.90
18139;DHT22;9195;53.176;9.486;2022-09-09T09:59:33;20.00;99.90
18139;DHT22;9195;53.176;9.486;2022-09-09T10:02:22;19.60;99.90
18139;DHT22;9195;53.176;9.486;2022-09-09T10:08:15;19.70;99.90
18139;DHT22;9195;53.176;9.486;2022-09-09T10:11:00;19.70;99.90
18139;DHT22;9195;53.176;9.486;2022-09-09T10:18:59;20.20;99.90
18139;DHT22;9195;53.176;9.486;2022-09-09T10:30:24;21.10;99.90
18139;DHT22;9195;53.176;9.486;2022-09-09T10:38:39;20.20;99.90
18139;DHT22;9195;53.176;9.486;2022-09-09T10:41:13;21.00;99.90
18139;DHT22;9195;53.176;9.486;2022-09-09T10:46:52;21.10;99.90
18139;DHT22;9195;53.176;9.486;2022-09-09T10:52:31;20.40;99.90
18139;DHT22;9195;53.176;9.486;2022-09-09T10:55:12;21.30;99.90
18139;DHT22;9195;53.176;9.486;2022-09-09T10:57:52;21.20;99.90
18139;DHT22;9195;53.176;9.486;2022-09-09T11:00:39;20.80;99.90
18139;DHT22;9195;53.176;9.486;2022-09-09T11:03:06;21.40;99.90
18139;DHT22;9195;53.176;9.486;2022-09-09T11:05:57;20.20;99.90
18139;DHT22;9195;53.176;9.486;2022-09-09T11:08:26;20.20;99.90
18139;DHT22;9195;53.176;9.486;2022-09-09T11:11:21;20.00;99.90
18139;DHT22;9195;53.176;9.486;2022-09-09T11:19:29;19.70;99.90
18139;DHT22;9195;53.176;9.486;2022-09-09T11:22:00;20.10;99.90
18139;DHT22;9195;53.176;9.486;2022-09-09T11:24:40;19.30;99.90
18139;DHT22;9195;53.176;9.486;2022-09-09T11:27:14;19.30;99.90
18139;DHT22;9195;53.176;9.486;2022-09-09T11:29:44;19.90;99.90
18139;DHT22;9195;53.176;9.486;2022-09-09T11:40:37;18.30;99.90
18139;DHT22;9195;53.176;9.486;2022-09-09T11:43:12;19.40;99.90
18139;DHT22;9195;53.176;9.486;2022-09-09T11:45:41;19.50;99.90
18139;DHT22;9195;53.176;9.486;2022-09-09T11:48:31;18.90;99.90
18139;DHT22;9195;53.176;9.486;2022-09-09T11:51:00;18.30;99.90
18139;DHT22;9195;53.176;9.486;2022-09-09T11:53:26;18.30;99.90
18139;DHT22;9195;53.176;9.486;2022-09-09T11:56:13;18.50;99.90
18139;DHT22;9195;53.176;9.486;2022-09-09T11:58:42;18.80;99.90
18139;DHT22;9195;53.176;9.486;2022-09-09T12:04:29;18.40;99.90
18139;DHT22;9195;53.176;9.486;2022-09-09T12:11:52;18.30;99.90
18139;DHT22;9195;53.176;9.486;2022-09-09T12:14:44;18.20;99.90
18139;DHT22;9195;53.176;9.486;2022-09-09T12:17:22;18.60;99.90
18139;DHT22;9195;53.176;9.486;2022-09-09T12:19:48;18.10;99.90
18139;DHT22;9195;53.176;9.486;2022-09-09T12:22:43;18.00;99.90
18139;DHT22;9195;53.176;9.486;2022-09-09T12:28:18;18.60;99.90
18139;DHT22;9195;53.176;9.486;2022-09-09T12:33:47;17.50;99.90
18139;DHT22;9195;53.176;9.486;2022-09-09T12:36:27;18.50;99.90
18139;DHT22;9195;53.176;9.486;2022-09-09T12:38:57;18.20;99.90
18139;DHT22;9195;53.176;9.486;2022-09-09T12:41:26;17.30;99.90
18139;DHT22;9195;53.176;9.486;2022-09-09T12:44:08;18.20;99.90
18139;DHT22;9195;53.176;9.486;2022-09-09T12:46:40;17.70;99.90
18139;DHT22;9195;53.176;9.486;2022-09-09T12:49:30;17.70;99.90
18139;DHT22;9195;53.176;9.486;2022-09-09T12:52:06;17.60;99.90
18139;DHT22;9195;53.176;9.486;2022-09-09T12:54:35;17.50;99.90
18139;DHT22;9195;53.176;9.486;2022-09-09T12:57:02;17.70;99.90
18139;DHT22;9195;53.176;9.486;2022-09-09T12:59:40;17.40;99.90
18139;DHT22;9195;53.176;9.486;2022-09-09T13:02:36;17.60;99.90
18139;DHT22;9195;53.176;9.486;2022-09-09T13:05:15;18.40;99.90
18139;DHT22;9195;53.176;9.486;2022-09-09T13:07:42;17.50;99.90
18139;DHT22;9195;53.176;9.486;2022-09-09T13:10:11;17.90;99.90
18139;DHT22;9195;53.176;9.486;2022-09-09T13:12:37;17.40;99.90
18139;DHT22;9195;53.176;9.486;2022-09-09T13:15:03;16.60;99.90
18139;DHT22;9195;53.176;9.486;2022-09-09T13:17:29;17.10;99.90
18139;DHT22;9195;53.176;9.486;2022-09-09T13:19:55;16.70;99.90
18139;DHT22;9195;53.176;9.486;2022-09-09T13:25:28;16.80;99.90
18139;DHT22;9195;53.176;9.486;2022-09-09T13:30:27;16.90;99.90
18139;DHT22;9195;53.176;9.486;2022-09-09T13:36:00;17.20;99.90
18139;DHT22;9195;53.176;9.486;2022-09-09T13:38:29;17.00;99.90
18139;DHT22;9195;53.176;9.486;2022-09-09T13:41:00;17.30;99.90
18139;DHT22;9195;53.176;9.486;2022-09-09T13:43:31;17.70;99.90
18139;DHT22;9195;53.176;9.486;2022-09-09T13:46:02;17.10;99.90
18139;DHT22;9195;53.176;9.486;2022-09-09T13:48:28;17.90;99.90
18139;DHT22;9195;53.176;9.486;2022-09-09T13:51:03;17.80;99.90
18139;DHT22;9195;53.176;9.486;2022-09-09T13:53:30;18.10;99.90
18139;DHT22;9195;53.176;9.486;2022-09-09T13:55:56;18.80;99.90
18139;DHT22;9195;53.176;9.486;2022-09-09T13:58:23;18.60;99.90
18139;DHT22;9195;53.176;9.486;2022-09-09T14:00:51;19.40;99.90
18139;DHT22;9195;53.176;9.486;2022-09-09T14:03:16;19.40;99.90
18139;DHT22;9195;53.176;9.486;2022-09-09T14:05:44;20.40;99.90
18139;DHT22;9195;53.176;9.486;2022-09-09T14:08:21;20.50;99.90
18139;DHT22;9195;53.176;9.486;2022-09-09T14:10:47;20.60;99.90
18139;DHT22;9195;53.176;9.486;2022-09-09T14:13:13;22.70;99.90
18139;DHT22;9195;53.176;9.486;2022-09-09T14:15:40;22.80;99.90
18139;DHT22;9195;53.176;9.486;2022-09-09T14:18:05;22.10;99.90
18139;DHT22;9195;53.176;9.486;2022-09-09T14:20:31;23.70;99.90
18139;DHT22;9195;53.176;9.486;2022-09-09T14:22:57;26.00;99.90
18139;DHT22;9195;53.176;9.486;2022-09-09T14:25:23;28.00;99.90
18139;DHT22;9195;53.176;9.486;2022-09-09T14:27:49;28.90;99.90
18139;DHT22;9195;53.176;9.486;2022-09-09T14:30:16;29.80;99.90
18139;DHT22;9195;53.176;9.486;2022-09-09T14:32:42;29.90;99.90
18139;DHT22;9195;53.176;9.486;2022-09-09T14:35:08;30.20;99.90
18139;DHT22;9195;53.176;9.486;2022-09-09T14:37:33;30.80;99.90
18139;DHT22;9195;53.176;9.486;2022-09-09T14:39:59;30.50;99.90
18139;DHT22;9195;53.176;9.486;2022-09-09T14:42:24;30.70;99.90
18139;DHT22;9195;53.176;9.486;2022-09-09T14:44:51;30.20;99.90
18139;DHT22;9195;53.176;9.486;2022-09-09T14:47:16;30.40;99.90
18139;DHT22;9195;53.176;9.486;2022-09-09T14:49:42;30.10;99.90
18139;DHT22;9195;53.176;9.486;2022-09-09T14:52:08;28.70;99.90
18139;DHT22;9195;53.176;9.486;2022-09-09T14:54:34;27.60;99.90
18139;DHT22;9195;53.176;9.486;2022-09-09T14:57:00;26.50;99.90
18139;DHT22;9195;53.176;9.486;2022-09-09T14:59:25;25.20;99.90
18139;DHT22;9195;53.176;9.486;2022-09-09T15:01:52;24.00;99.90
18139;DHT22;9195;53.176;9.486;2022-09-09T15:04:18;23.20;99.90
18139;DHT22;9195;53.176;9.486;2022-09-09T15:06:44;22.90;99.90
18139;DHT22;9195;53.176;9.486;2022-09-09T15:09:13;22.60;99.90
18139;DHT22;9195;53.176;9.486;2022-09-09T15:11:39;21.90;99.90
18139;DHT22;9195;53.176;9.486;2022-09-09T15:14:06;21.70;99.90
18139;DHT22;9195;53.176;9.486;2022-09-09T15:16:32;21.10;99.90
18139;DHT22;9195;53.176;9.486;2022-09-09T15:18:59;21.00;99.90
18139;DHT22;9195;53.176;9.486;2022-09-09T15:21:30;20.50;99.90
18139;DHT22;9195;53.176;9.486;2022-09-09T15:23:57;20.60;99.90
18139;DHT22;9195;53.176;9.486;2022-09-09T15:26:23;20.20;99.90
18139;DHT22;9195;53.176;9.486;2022-09-09T15:28:50;20.20;99.90
18139;DHT22;9195;53.176;9.486;2022-09-09T15:31:24;20.30;99.90
18139;DHT22;9195;53.176;9.486;2022-09-09T15:33:51;19.90;99.90
18139;DHT22;9195;53.176;9.486;2022-09-09T15:36:22;19.30;99.90
18139;DHT22;9195;53.176;9.486;2022-09-09T15:38:48;19.50;99.90
18139;DHT22;9195;53.176;9.486;2022-09-09T15:41:14;19.20;99.90
18139;DHT22;9195;53.176;9.486;2022-09-09T15:43:44;18.80;99.90
18139;DHT22;9195;53.176;9.486;2022-09-09T15:48:43;18.90;99.90
18139;DHT22;9195;53.176;9.486;2022-09-09T15:51:10;18.60;99.90
18139;DHT22;9195;53.176;9.486;2022-09-09T15:53:39;19.00;99.90
18139;DHT22;9195;53.176;9.486;2022-09-09T15:56:06;18.50;99.90
18139;DHT22;9195;53.176;9.486;2022-09-09T15:58:35;18.40;99.90
18139;DHT22;9195;53.176;9.486;2022-09-09T16:01:08;18.60;99.90
18139;DHT22;9195;53.176;9.486;2022-09-09T16:03:37;18.30;99.90
18139;DHT22;9195;53.176;9.486;2022-09-09T16:06:04;18.00;99.90
18139;DHT22;9195;53.176;9.486;2022-09-09T16:08:38;18.30;99.90
18139;DHT22;9195;53.176;9.486;2022-09-09T16:11:09;18.30;99.90
18139;DHT22;9195;53.176;9.486;2022-09-09T16:13:38;17.90;99.90
18139;DHT22;9195;53.176;9.486;2022-09-09T16:16:08;18.00;99.90
18139;DHT22;9195;53.176;9.486;2022-09-09T16:18:45;17.80;99.90
18139;DHT22;9195;53.176;9.486;2022-09-09T16:21:21;18.20;99.90
18139;DHT22;9195;53.176;9.486;2022-09-09T16:23:47;17.60;99.90
18139;DHT22;9195;53.176;9.486;2022-09-09T16:26:15;17.60;99.90
18139;DHT22;9195;53.176;9.486;2022-09-09T16:28:41;18.20;99.90
18139;DHT22;9195;53.176;9.486;2022-09-09T16:31:18;17.90;99.90
18139;DHT22;9195;53.176;9.486;2022-09-09T16:33:44;17.40;99.90
18139;DHT22;9195;53.176;9.486;2022-09-09T16:36:12;17.30;99.90
18139;DHT22;9195;53.176;9.486;2022-09-09T16:38:39;17.40;99.90
18139;DHT22;9195;53.176;9.486;2022-09-09T16:41:06;17.40;99.90
18139;DHT22;9195;53.176;9.486;2022-09-09T16:43:33;17.40;99.90
18139;DHT22;9195;53.176;9.486;2022-09-09T16:45:59;17.40;99.90
18139;DHT22;9195;53.176;9.486;2022-09-09T16:48:31;17.50;99.90
18139;DHT22;9195;53.176;9.486;2022-09-09T16:51:06;17.40;99.90
18139;DHT22;9195;53.176;9.486;2022-09-09T16:53:33;17.40;99.90
18139;DHT22;9195;53.176;9.486;2022-09-09T16:56:16;16.80;99.90
18139;DHT22;9195;53.176;9.486;2022-09-09T16:58:42;17.00;99.90
18139;DHT22;9195;53.176;9.486;2022-09-09T17:01:09;17.00;99.90
18139;DHT22;9195;53.176;9.486;2022-09-09T17:03:35;16.60;99.90
18139;DHT22;9195;53.176;9.486;2022-09-09T17:06:03;17.00;99.90
18139;DHT22;9195;53.176;9.486;2022-09-09T17:08:29;16.60;99.90
18139;DHT22;9195;53.176;9.486;2022-09-09T17:10:55;16.60;99.90
18139;DHT22;9195;53.176;9.486;2022-09-09T17:13:22;16.80;99.90
18139;DHT22;9195;53.176;9.486;2022-09-09T17:15:47;16.90;99.90
18139;DHT22;9195;53.176;9.486;2022-09-09T17:18:13;16.90;99.90
18139;DHT22;9195;53.176;9.486;2022-09-09T17:20:39;16.50;99.90
18139;DHT22;9195;53.176;9.486;2022-09-09T17:23:07;16.90;99.90
18139;DHT22;9195;53.176;9.486;2022-09-09T17:25:33;16.70;99.90
18139;DHT22;9195;53.176;9.486;2022-09-09T17:27:59;16.60;99.90
18139;DHT22;9195;53.176;9.486;2022-09-09T17:30:25;17.00;99.90
18139;DHT22;9195;53.176;9.486;2022-09-09T17:32:51;16.50;99.90
18139;DHT22;9195;53.176;9.486;2022-09-09T17:35:17;17.00;99.90
18139;DHT22;9195;53.176;9.486;2022-09-09T17:37:43;16.50;99.90
18139;DHT22;9195;53.176;9.486;2022-09-09T17:40:10;16.60;99.90
18139;DHT22;9195;53.176;9.486;2022-09-09T17:42:36;16.90;99.90
18139;DHT22;9195;53.176;9.486;2022-09-09T17:45:02;16.80;99.90
18139;DHT22;9195;53.176;9.486;2022-09-09T17:47:28;16.40;99.90
18139;DHT22;9195;53.176;9.486;2022-09-09T17:49:56;17.00;99.90
18139;DHT22;9195;53.176;9.486;2022-09-09T17:52:21;16.70;99.90
18139;DHT22;9195;53.176;9.486;2022-09-09T17:54:48;17.10;99.90
18139;DHT22;9195;53.176;9.486;2022-09-09T17:57:15;16.70;99.90
18139;DHT22;9195;53.176;9.486;2022-09-09T17:59:42;16.40;99.90
18139;DHT22;9195;53.176;9.486;2022-09-09T18:02:10;17.00;99.90
18139;DHT22;9195;53.176;9.486;2022-09-09T18:04:36;16.70;99.90
18139;DHT22;9195;53.176;9.486;2022-09-09T18:07:02;16.40;99.90
18139;DHT22;9195;53.176;9.486;2022-09-09T18:09:27;16.70;99.90
18139;DHT22;9195;53.176;9.486;2022-09-09T18:11:55;16.70;99.90
18139;DHT22;9195;53.176;9.486;2022-09-09T18:14:27;16.40;99.90
18139;DHT22;9195;53.176;9.486;2022-09-09T18:16:55;16.70;99.90
18139;DHT22;9195;53.176;9.486;2022-09-09T18:19:25;16.80;99.90
18139;DHT22;9195;53.176;9.486;2022-09-09T18:21:52;16.90;99.90
18139;DHT22;9195;53.176;9.486;2022-09-09T18:24:20;16.60;99.90